Cornell, Michigan
Current Conditions -  °F | °C
As of 6:35 AM on Friday 31 Oct 2014 (Local Time) from KESC Reporting Station
Overcast Overcast  
Wind Chill: 24°   Ceiling: 2600
Heat Index: 34°   Visibility: 10mi
Dew Point: 27°   Wind: 14mph
Humidity: 75%   Direction: 350°N
Pressure: 30.13"   Gusts: 26mph
Location:  45.9°N, 87.22°W
Report Text: KESC 311035Z AUTO 35012G23KT 10SM FEW017 BKN026 OVC110 01/M03 A3013 RMK AO1
Loading
Personal Weather Stations






























Interactive Weather Map
Tropical Storm Tracking
New forecast layout! Learn more

10-Day Weather Forecast

Advertisements
Track Severe Weather on mobile